Terminal Aerodrome Forecast
Issued by NWS Cleveland, OH

Home | Current Version | Previous Version | Text Only | Print | Product List | Glossary On
Versions: 1 2 3 4 5 6 7 8 9 10 11 12 13 14 15 16 17 18
000
FTUS41 KCLE 020000 AAA
TAFTOL
TAF AMD
KTOL 020023Z 0200/0224 05018G28KT 1/4SM +SN BLSN OVC006
     FM020300 05018G28KT 1/2SM SN BLSN OVC006
     FM020500 02020G30KT 1 1/2SM -SN BLSN OVC006
     FM021300 34018G28KT 3SM BLSN OVC010
     FM021800 32015KT P6SM SCT010=

USA.gov is the U.S. government's official web portal to all federal, state and local government web resources and services.